Time;durP1;ratioP1;P1;durP2;ratioP2;P2;SDS_P1;SDS_P2;PMS_P1;PMS_P2;Temp;Humidity;BMP_temperature;BMP_pressure;BME280_temperature;BME280_humidity;BME280_pressure;Samples;Min_cycle;Max_cycle;Signal;HPM_P1;HPM_P2
2023/12/25 00:01:23;;;;;;;;;;;;;;;;;;5017070;27;59321;-76
2023/12/25 00:03:48;;;;;;;;;;;;;;;;;;5019713;28;57993;-75
2023/12/25 00:06:13;;;;;;;;;;;;;;;;;;5017077;28;59317;-76
2023/12/25 00:08:38;;;;;;;;;;;;;;;;;;5019306;27;58197;-76
2023/12/25 00:11:03;;;;;;;;;;;;;;;;;;5019865;28;58126;-78
2023/12/25 00:13:28;;;;;;;;;;;;;;;;;;5014004;28;58523;-78
2023/12/25 00:15:53;;;;;;;;;;;;;;;;;;5020325;27;58545;-80
2023/12/25 00:18:18;;;;;;;;;;;;;;;;;;5021361;27;58809;-80
2023/12/25 00:20:43;;;;;;;;;;;;;;;;;;5017361;28;58353;-81
2023/12/25 00:23:09;;;;;;;;;;;;;;;;;;5021149;27;59790;-80
2023/12/25 00:25:34;;;;;;;;;;;;;;;;;;5021651;28;58232;-79
2023/12/25 00:27:59;;;;;;;;;;;;;;;;;;5021298;28;58552;-78
2023/12/25 00:30:24;;;;;;;;;;;;;;;;;;5021231;28;59516;-77
2023/12/25 00:32:49;;;;;;;;;;;;;;;;;;5016932;28;58999;-81
2023/12/25 00:35:14;;;;;;;;;;;;;;;;;;5020644;27;57958;-80
2023/12/25 00:37:39;;;;;;;;;;;;;;;;;;5017345;28;59487;-81
2023/12/25 00:40:04;;;;;;;;;;;;;;;;;;5019253;28;59405;-80
2023/12/25 00:42:29;;;;;;;;;;;;;;;;;;5016666;28;59122;-80
2023/12/25 00:44:54;;;;;;;;;;;;;;;;;;5017597;28;58886;-80
2023/12/25 00:47:19;;;;;;;;;;;;;;;;;;5019442;28;58859;-80
2023/12/25 00:49:44;;;;;;;;;;;;;;;;;;5016163;28;58933;-80
2023/12/25 00:52:09;;;;;;;;;;;;;;;;;;5017203;28;58415;-80
2023/12/25 00:54:36;;;;;;;;;;;;;;;;;;5018413;28;58361;-80
2023/12/25 00:57:01;;;;;;;;;;;;;;;;;;5019404;28;59517;-80
2023/12/25 00:59:26;;;;;;;;;;;;;;;;;;5017584;27;58316;-80
2023/12/25 01:01:52;;;;;;;;;;;;;;;;;;5016030;28;58809;-81
2023/12/25 01:04:17;;;;;;;;;;;;;;;;;;5016999;28;59494;-80
2023/12/25 01:06:42;;;;;;;;;;;;;;;;;;5018737;27;58232;-80
2023/12/25 01:09:07;;;;;;;;;;;;;;;;;;5021904;28;58935;-80
2023/12/25 01:11:32;;;;;;;;;;;;;;;;;;5018581;28;58806;-79
2023/12/25 01:13:57;;;;;;;;;;;;;;;;;;5020247;27;58068;-80
2023/12/25 01:16:23;;;;;;;;;;;;;;;;;;5021317;27;58531;-80
2023/12/25 01:18:49;;;;;;;;;;;;;;;;;;5021147;27;58977;-80
2023/12/25 01:21:14;;;;;;;;;;;;;;;;;;5020672;27;60306;-80
2023/12/25 01:23:39;;;;;;;;;;;;;;;;;;5018276;28;58619;-80
2023/12/25 01:26:04;;;;;;;;;;;;;;;;;;5020802;28;58184;-80
2023/12/25 01:28:29;;;;;;;;;;;;;;;;;;5020538;27;58794;-76
2023/12/25 01:30:54;;;;;;;;;;;;;;;;;;5020828;27;58909;-76
2023/12/25 01:33:19;;;;;;;;;;;;;;;;;;5020483;28;58272;-78
2023/12/25 01:35:44;;;;;;;;;;;;;;;;;;5021082;28;58258;-76
2023/12/25 01:38:09;;;;;;;;;;;;;;;;;;5018245;28;59705;-76
2023/12/25 01:40:34;;;;;;;;;;;;;;;;;;5019883;28;57749;-77
2023/12/25 01:42:59;;;;;;;;;;;;;;;;;;5017306;27;58702;-76
2023/12/25 01:45:24;;;;;;;;;;;;;;;;;;5021752;27;58297;-76
2023/12/25 01:47:50;;;;;;;;;;;;;;;;;;5022514;28;58603;-76
2023/12/25 01:50:15;;;;;;;;;;;;;;;;;;5020409;28;58866;-77
2023/12/25 01:52:40;;;;;;;;;;;;;;;;;;5021982;28;57949;-76
2023/12/25 01:55:05;;;;;;;;;;;;;;;;;;5021144;27;58533;-77
2023/12/25 01:57:30;;;;;;;;;;;;;;;;;;5020538;28;58987;-77
2023/12/25 01:59:55;;;;;;;;;;;;;;;;;;5020704;28;58907;-76
2023/12/25 02:02:22;;;;;;;;;;;;;;;;;;5020174;27;59548;-76
2023/12/25 02:04:48;;;;;;;;;;;;;;;;;;5019017;27;57763;-76
2023/12/25 02:07:13;;;;;;;;;;;;;;;;;;5022222;28;58429;-76
2023/12/25 02:09:38;;;;;;;;;;;;;;;;;;5020714;27;59929;-76
2023/12/25 02:12:03;;;;;;;;;;;;;;;;;;5020770;28;59093;-76
2023/12/25 02:14:28;;;;;;;;;;;;;;;;;;5017694;27;58820;-76
2023/12/25 02:16:53;;;;;;;;;;;;;;;;;;5020246;28;58936;-76
2023/12/25 02:19:18;;;;;;;;;;;;;;;;;;5020365;27;57845;-76
2023/12/25 02:21:43;;;;;;;;;;;;;;;;;;5020521;28;58154;-76
2023/12/25 02:24:08;;;;;;;;;;;;;;;;;;5022613;28;58776;-77
2023/12/25 02:26:33;;;;;;;;;;;;;;;;;;5021921;27;59207;-76
2023/12/25 02:28:58;;;;;;;;;;;;;;;;;;5022307;28;59104;-76
2023/12/25 02:31:23;;;;;;;;;;;;;;;;;;5022440;27;58108;-76
2023/12/25 02:33:48;;;;;;;;;;;;;;;;;;5024085;28;59319;-76
2023/12/25 02:36:14;;;;;;;;;;;;;;;;;;5022686;27;58646;-77
2023/12/25 02:38:39;;;;;;;;;;;;;;;;;;5023494;28;58225;-75
2023/12/25 02:41:04;;;;;;;;;;;;;;;;;;5021987;28;58218;-75
2023/12/25 02:43:29;;;;;;;;;;;;;;;;;;5021664;28;59954;-76
2023/12/25 02:45:54;;;;;;;;;;;;;;;;;;5020833;27;59014;-76
2023/12/25 02:48:19;;;;;;;;;;;;;;;;;;5022464;28;59628;-76
2023/12/25 02:50:44;;;;;;;;;;;;;;;;;;5020545;28;58478;-76
2023/12/25 02:53:09;;;;;;;;;;;;;;;;;;5021896;27;59398;-76
2023/12/25 02:55:34;;;;;;;;;;;;;;;;;;5021322;27;58876;-76
2023/12/25 02:57:59;;;;;;;;;;;;;;;;;;5022806;28;59301;-80
2023/12/25 03:00:24;;;;;;;;;;;;;;;;;;5022783;28;58550;-80
2023/12/25 03:02:50;;;;;;;;;;;;;;;;;;5022752;28;58083;-80
2023/12/25 03:05:15;;;;;;;;;;;;;;;;;;5023717;27;58358;-80
2023/12/25 03:07:40;;;;;;;;;;;;;;;;;;5020520;28;58798;-80
2023/12/25 03:10:05;;;;;;;;;;;;;;;;;;5022399;27;58389;-79
2023/12/25 03:12:30;;;;;;;;;;;;;;;;;;5021697;28;57960;-80
2023/12/25 03:14:55;;;;;;;;;;;;;;;;;;5022541;28;59278;-80
2023/12/25 03:17:20;;;;;;;;;;;;;;;;;;5023218;27;58125;-80
2023/12/25 03:19:45;;;;;;;;;;;;;;;;;;5021380;28;58515;-80
2023/12/25 03:22:10;;;;;;;;;;;;;;;;;;5018625;28;59901;-80
2023/12/25 03:24:35;;;;;;;;;;;;;;;;;;5022317;28;59130;-80
2023/12/25 03:27:00;;;;;;;;;;;;;;;;;;5023166;28;58468;-80
2023/12/25 03:29:25;;;;;;;;;;;;;;;;;;5021189;28;59677;-80
2023/12/25 03:31:50;;;;;;;;;;;;;;;;;;5021916;28;58147;-80
2023/12/25 03:34:18;;;;;;;;;;;;;;;;;;5020419;28;58939;-80
2023/12/25 03:36:43;;;;;;;;;;;;;;;;;;5021102;27;58313;-79
2023/12/25 03:39:08;;;;;;;;;;;;;;;;;;5023588;28;59096;-79
2023/12/25 03:41:33;;;;;;;;;;;;;;;;;;5019868;27;57991;-80
2023/12/25 03:43:58;;;;;;;;;;;;;;;;;;5017700;27;58262;-79
2023/12/25 03:46:23;;;;;;;;;;;;;;;;;;5018430;28;58745;-80
2023/12/25 03:48:50;;;;;;;;;;;;;;;;;;5017251;28;58860;-79
2023/12/25 03:51:15;;;;;;;;;;;;;;;;;;5019006;28;59875;-79
2023/12/25 03:53:40;;;;;;;;;;;;;;;;;;5016733;28;58952;-79
2023/12/25 03:56:05;;;;;;;;;;;;;;;;;;5019676;28;57805;-80
2023/12/25 03:58:30;;;;;;;;;;;;;;;;;;5019602;28;58504;-79
2023/12/25 04:00:56;;;;;;;;;;;;;;;;;;5017954;27;59038;-80
2023/12/25 04:03:21;;;;;;;;;;;;;;;;;;5016972;28;58241;-79
2023/12/25 04:05:46;;;;;;;;;;;;;;;;;;5020331;28;58521;-79
2023/12/25 04:08:11;;;;;;;;;;;;;;;;;;5019343;28;59000;-75
2023/12/25 04:10:36;;;;;;;;;;;;;;;;;;5018281;27;58611;-76
2023/12/25 04:13:03;;;;;;;;;;;;;;;;;;5016325;27;58882;-76
2023/12/25 04:15:28;;;;;;;;;;;;;;;;;;5018489;28;58017;-77
2023/12/25 04:17:53;;;;;;;;;;;;;;;;;;5017860;28;59340;-76
2023/12/25 04:20:18;;;;;;;;;;;;;;;;;;5017405;27;59684;-76
2023/12/25 04:22:43;;;;;;;;;;;;;;;;;;5019423;28;58797;-76
2023/12/25 04:25:08;;;;;;;;;;;;;;;;;;5019181;27;59749;-76
2023/12/25 04:27:33;;;;;;;;;;;;;;;;;;5017641;28;59418;-76
2023/12/25 04:29:58;;;;;;;;;;;;;;;;;;5019666;28;58810;-75
2023/12/25 04:32:24;;;;;;;;;;;;;;;;;;5014898;28;58829;-76
2023/12/25 04:34:49;;;;;;;;;;;;;;;;;;5018338;27;58803;-76
2023/12/25 04:37:14;;;;;;;;;;;;;;;;;;5018765;27;58765;-75
2023/12/25 04:39:40;;;;;;;;;;;;;;;;;;5019695;28;58858;-76
2023/12/25 04:42:05;;;;;;;;;;;;;;;;;;5019623;28;58157;-75
2023/12/25 04:44:30;;;;;;;;;;;;;;;;;;5022510;28;59208;-77
2023/12/25 04:46:55;;;;;;;;;;;;;;;;;;5021504;27;58709;-76
2023/12/25 04:49:20;;;;;;;;;;;;;;;;;;5020244;28;58488;-75
2023/12/25 04:51:45;;;;;;;;;;;;;;;;;;5021790;28;59434;-76
2023/12/25 04:54:10;;;;;;;;;;;;;;;;;;5021837;28;58270;-76
2023/12/25 04:56:35;;;;;;;;;;;;;;;;;;5023214;28;58651;-75
2023/12/25 04:59:00;;;;;;;;;;;;;;;;;;5020437;27;58940;-75
2023/12/25 05:01:25;;;;;;;;;;;;;;;;;;5022343;27;58238;-76
2023/12/25 05:03:50;;;;;;;;;;;;;;;;;;5023379;27;58705;-77
2023/12/25 05:06:15;;;;;;;;;;;;;;;;;;5021145;27;58657;-77
2023/12/25 05:08:41;;;;;;;;;;;;;;;;;;5024536;28;58047;-77
2023/12/25 05:11:06;;;;;;;;;;;;;;;;;;5022250;27;58734;-75
2023/12/25 05:13:31;;;;;;;;;;;;;;;;;;5021938;28;58917;-76
2023/12/25 05:15:56;;;;;;;;;;;;;;;;;;5020675;28;58479;-75
2023/12/25 05:18:21;;;;;;;;;;;;;;;;;;5022086;27;58861;-80
2023/12/25 05:20:46;;;;;;;;;;;;;;;;;;5018235;28;59402;-79
2023/12/25 05:23:11;;;;;;;;;;;;;;;;;;5022362;28;58147;-80
2023/12/25 05:25:36;;;;;;;;;;;;;;;;;;5016961;28;58773;-80
2023/12/25 05:28:01;;;;;;;;;;;;;;;;;;5022556;27;57919;-80
2023/12/25 05:30:26;;;;;;;;;;;;;;;;;;5021843;27;60578;-80
2023/12/25 05:32:52;;;;;;;;;;;;;;;;;;5022030;28;59747;-80
2023/12/25 05:35:17;;;;;;;;;;;;;;;;;;5022153;28;58336;-79
2023/12/25 05:37:42;;;;;;;;;;;;;;;;;;5021142;27;58938;-80
2023/12/25 05:40:07;;;;;;;;;;;;;;;;;;5021693;27;58048;-79
2023/12/25 05:42:32;;;;;;;;;;;;;;;;;;5021605;28;58387;-79
2023/12/25 05:44:57;;;;;;;;;;;;;;;;;;5021440;28;58156;-79
2023/12/25 05:47:22;;;;;;;;;;;;;;;;;;5021120;27;58423;-79
2023/12/25 05:49:47;;;;;;;;;;;;;;;;;;5022099;28;58631;-80
2023/12/25 05:52:12;;;;;;;;;;;;;;;;;;5018675;27;77432;-80
2023/12/25 05:54:37;;;;;;;;;;;;;;;;;;5020045;27;58191;-79
2023/12/25 05:57:02;;;;;;;;;;;;;;;;;;5018346;28;58848;-79
2023/12/25 05:59:27;;;;;;;;;;;;;;;;;;5020064;27;57944;-79
2023/12/25 06:01:53;;;;;;;;;;;;;;;;;;5020364;28;58216;-80
2023/12/25 06:04:18;;;;;;;;;;;;;;;;;;5021006;28;59545;-79
2023/12/25 06:06:43;;;;;;;;;;;;;;;;;;5020255;28;58352;-79
2023/12/25 06:09:10;;;;;;;;;;;;;;;;;;5022316;28;59091;-80
2023/12/25 06:11:35;;;;;;;;;;;;;;;;;;5021643;27;58873;-79
2023/12/25 06:14:00;;;;;;;;;;;;;;;;;;5023733;27;58603;-81
2023/12/25 06:16:25;;;;;;;;;;;;;;;;;;5021640;28;58668;-80
2023/12/25 06:18:50;;;;;;;;;;;;;;;;;;5022206;27;59288;-80
2023/12/25 06:21:15;;;;;;;;;;;;;;;;;;5023222;27;59029;-79
2023/12/25 06:23:41;;;;;;;;;;;;;;;;;;5020108;28;59016;-79
2023/12/25 06:26:06;;;;;;;;;;;;;;;;;;5023546;28;57846;-80
2023/12/25 06:28:31;;;;;;;;;;;;;;;;;;5023040;28;58520;-79
2023/12/25 06:30:57;;;;;;;;;;;;;;;;;;5021391;28;60998;-80
2023/12/25 06:33:22;;;;;;;;;;;;;;;;;;5022807;28;58313;-80
2023/12/25 06:35:47;;;;;;;;;;;;;;;;;;5021194;28;58729;-80
2023/12/25 06:38:12;;;;;;;;;;;;;;;;;;5020556;28;58513;-79
2023/12/25 06:40:37;;;;;;;;;;;;;;;;;;5022306;27;58182;-80
2023/12/25 06:43:02;;;;;;;;;;;;;;;;;;5019586;27;58929;-80
2023/12/25 06:45:27;;;;;;;;;;;;;;;;;;5020277;27;58990;-80
2023/12/25 06:47:52;;;;;;;;;;;;;;;;;;5023102;28;59781;-80
2023/12/25 06:50:17;;;;;;;;;;;;;;;;;;5021757;28;58981;-80
2023/12/25 06:52:43;;;;;;;;;;;;;;;;;;5022189;28;58187;-80
2023/12/25 06:55:09;;;;;;;;;;;;;;;;;;5021111;28;58831;-79
2023/12/25 06:57:34;;;;;;;;;;;;;;;;;;5018338;28;58908;-79
2023/12/25 06:59:59;;;;;;;;;;;;;;;;;;5022710;28;57961;-80
2023/12/25 07:02:25;;;;;;;;;;;;;;;;;;5021644;28;58919;-79
2023/12/25 07:04:50;;;;;;;;;;;;;;;;;;5021048;27;59024;-80
2023/12/25 07:07:15;;;;;;;;;;;;;;;;;;5021458;27;58764;-79
2023/12/25 07:09:42;;;;;;;;;;;;;;;;;;5020101;28;59546;-80
2023/12/25 07:12:07;;;;;;;;;;;;;;;;;;5020966;28;58136;-79
2023/12/25 07:14:32;;;;;;;;;;;;;;;;;;5022460;28;58814;-80
2023/12/25 07:16:57;;;;;;;;;;;;;;;;;;5018632;27;59404;-75
2023/12/25 07:19:22;;;;;;;;;;;;;;;;;;5014882;28;58343;-77
2023/12/25 07:21:47;;;;;;;;;;;;;;;;;;5018825;28;58691;-75
2023/12/25 07:24:12;;;;;;;;;;;;;;;;;;5022758;28;58493;-75
2023/12/25 07:26:38;;;;;;;;;;;;;;;;;;5021805;27;59637;-74
2023/12/25 07:29:03;;;;;;;;;;;;;;;;;;5016066;28;58846;-76
2023/12/25 07:31:28;;;;;;;;;;;;;;;;;;5019166;28;57994;-77
2023/12/25 07:33:53;;;;;;;;;;;;;;;;;;5023065;27;59751;-77
2023/12/25 07:36:18;;;;;;;;;;;;;;;;;;5019178;27;59824;-76
2023/12/25 07:38:43;;;;;;;;;;;;;;;;;;5015861;28;57935;-75
2023/12/25 07:41:08;;;;;;;;;;;;;;;;;;5016457;27;59302;-76
2023/12/25 07:43:35;;;;;;;;;;;;;;;;;;5017428;28;58815;-76
2023/12/25 07:46:00;;;;;;;;;;;;;;;;;;5017756;28;58783;-76
2023/12/25 07:48:25;;;;;;;;;;;;;;;;;;5016757;27;59817;-77
2023/12/25 07:50:51;;;;;;;;;;;;;;;;;;5019137;28;57949;-77
2023/12/25 07:53:16;;;;;;;;;;;;;;;;;;5017189;28;58751;-75
2023/12/25 07:55:41;;;;;;;;;;;;;;;;;;5017058;28;60027;-77
2023/12/25 07:58:06;;;;;;;;;;;;;;;;;;5020292;28;58188;-76
2023/12/25 08:00:31;;;;;;;;;;;;;;;;;;5016222;28;58884;-77
2023/12/25 08:02:56;;;;;;;;;;;;;;;;;;5019409;28;58802;-77
2023/12/25 08:05:21;;;;;;;;;;;;;;;;;;5022241;28;58411;-76
2023/12/25 08:07:46;;;;;;;;;;;;;;;;;;5019197;28;58870;-76
2023/12/25 08:10:11;;;;;;;;;;;;;;;;;;5018995;28;57901;-76
2023/12/25 08:12:37;;;;;;;;;;;;;;;;;;5020963;28;59301;-76
2023/12/25 08:15:02;;;;;;;;;;;;;;;;;;5019301;28;59696;-77
2023/12/25 08:17:27;;;;;;;;;;;;;;;;;;5021300;27;57798;-78
2023/12/25 08:19:52;;;;;;;;;;;;;;;;;;5018452;28;58892;-80
2023/12/25 08:22:17;;;;;;;;;;;;;;;;;;5016722;27;58878;-78
2023/12/25 08:24:43;;;;;;;;;;;;;;;;;;5019758;28;58582;-79
2023/12/25 08:27:08;;;;;;;;;;;;;;;;;;5020015;28;59762;-80
2023/12/25 08:29:33;;;;;;;;;;;;;;;;;;5018243;28;57984;-81
2023/12/25 08:31:58;;;;;;;;;;;;;;;;;;5015911;28;58763;-79
2023/12/25 08:34:23;;;;;;;;;;;;;;;;;;5018101;28;59260;-81
2023/12/25 08:36:48;;;;;;;;;;;;;;;;;;5018947;28;58294;-80
2023/12/25 08:39:13;;;;;;;;;;;;;;;;;;5019964;28;59667;-81
2023/12/25 08:41:38;;;;;;;;;;;;;;;;;;5014812;28;59722;-81
2023/12/25 08:44:03;;;;;;;;;;;;;;;;;;5020027;28;59217;-80
2023/12/25 08:46:29;;;;;;;;;;;;;;;;;;5020549;28;58789;-80
2023/12/25 08:48:54;;;;;;;;;;;;;;;;;;5021818;27;57832;-78
2023/12/25 08:51:19;;;;;;;;;;;;;;;;;;5022018;28;58436;-79
2023/12/25 08:53:44;;;;;;;;;;;;;;;;;;5021388;28;59076;-79
2023/12/25 08:56:09;;;;;;;;;;;;;;;;;;5021020;28;58854;-78
2023/12/25 08:58:35;;;;;;;;;;;;;;;;;;5019063;28;58614;-79
2023/12/25 09:01:00;;;;;;;;;;;;;;;;;;5016947;28;59793;-79
2023/12/25 09:03:25;;;;;;;;;;;;;;;;;;5019027;28;57959;-78
2023/12/25 09:05:50;;;;;;;;;;;;;;;;;;5019694;28;58250;-79
2023/12/25 09:08:17;;;;;;;;;;;;;;;;;;5015102;27;58990;-80
2023/12/25 09:10:42;;;;;;;;;;;;;;;;;;5016793;28;58877;-78
2023/12/25 09:13:07;;;;;;;;;;;;;;;;;;5013229;28;60522;-78
2023/12/25 09:15:32;;;;;;;;;;;;;;;;;;5014870;28;58632;-81
2023/12/25 09:17:57;;;;;;;;;;;;;;;;;;5018889;28;59392;-78
2023/12/25 09:20:22;;;;;;;;;;;;;;;;;;5015954;28;59821;-78
2023/12/25 09:22:47;;;;;;;;;;;;;;;;;;5018122;28;58687;-78
2023/12/25 09:25:12;;;;;;;;;;;;;;;;;;5016324;28;58651;-80
2023/12/25 09:27:37;;;;;;;;;;;;;;;;;;5017204;28;59812;-79
2023/12/25 09:30:02;;;;;;;;;;;;;;;;;;5019934;28;58655;-79
2023/12/25 09:32:28;;;;;;;;;;;;;;;;;;5019151;28;59147;-81
2023/12/25 09:34:53;;;;;;;;;;;;;;;;;;5017430;28;59627;-79
2023/12/25 09:37:18;;;;;;;;;;;;;;;;;;5021178;28;59544;-79
2023/12/25 09:39:43;;;;;;;;;;;;;;;;;;5017524;27;59695;-79
2023/12/25 09:42:08;;;;;;;;;;;;;;;;;;5020341;28;58699;-81
2023/12/25 09:44:33;;;;;;;;;;;;;;;;;;5021422;28;58544;-79
2023/12/25 09:46:59;;;;;;;;;;;;;;;;;;5022081;28;59888;-79
2023/12/25 09:49:24;;;;;;;;;;;;;;;;;;5023063;27;58975;-81
2023/12/25 09:51:49;;;;;;;;;;;;;;;;;;5022288;28;58583;-79
2023/12/25 09:54:14;;;;;;;;;;;;;;;;;;5022166;28;58035;-80
2023/12/25 09:56:40;;;;;;;;;;;;;;;;;;5022687;28;58613;-79
2023/12/25 09:59:05;;;;;;;;;;;;;;;;;;5022730;28;58958;-79
2023/12/25 10:01:30;;;;;;;;;;;;;;;;;;5024184;27;59100;-79
2023/12/25 10:03:55;;;;;;;;;;;;;;;;;;5023200;28;58610;-79
2023/12/25 10:06:20;;;;;;;;;;;;;;;;;;5023182;28;58781;-80
2023/12/25 10:08:46;;;;;;;;;;;;;;;;;;5022856;28;58469;-79
2023/12/25 10:11:13;;;;;;;;;;;;;;;;;;5024072;27;58659;-79
2023/12/25 10:13:39;;;;;;;;;;;;;;;;;;5021806;27;60264;-80
2023/12/25 10:16:04;;;;;;;;;;;;;;;;;;5022160;28;58645;-79
2023/12/25 10:18:29;;;;;;;;;;;;;;;;;;5022322;28;58953;-79
2023/12/25 10:20:54;;;;;;;;;;;;;;;;;;5020655;28;57858;-80
2023/12/25 10:23:19;;;;;;;;;;;;;;;;;;5022569;27;59411;-79
2023/12/25 10:25:45;;;;;;;;;;;;;;;;;;5022764;27;58915;-78
2023/12/25 10:28:10;;;;;;;;;;;;;;;;;;5022403;28;58308;-79
2023/12/25 10:30:35;;;;;;;;;;;;;;;;;;5020047;28;58765;-78
2023/12/25 10:33:00;;;;;;;;;;;;;;;;;;5019084;28;58442;-78
2023/12/25 10:35:26;;;;;;;;;;;;;;;;;;5022159;27;58785;-73
2023/12/25 10:37:51;;;;;;;;;;;;;;;;;;5020083;28;58964;-74
2023/12/25 10:40:16;;;;;;;;;;;;;;;;;;5024161;27;59318;-73
2023/12/25 10:42:41;;;;;;;;;;;;;;;;;;5022439;27;58169;-79
2023/12/25 10:45:06;;;;;;;;;;;;;;;;;;5023407;28;58850;-78
2023/12/25 10:47:31;;;;;;;;;;;;;;;;;;5023097;28;57874;-78
2023/12/25 10:49:57;;;;;;;;;;;;;;;;;;5022865;28;58566;-79
2023/12/25 10:52:22;;;;;;;;;;;;;;;;;;5021927;27;58962;-78
2023/12/25 10:54:47;;;;;;;;;;;;;;;;;;5022025;28;58617;-75
2023/12/25 10:57:12;;;;;;;;;;;;;;;;;;5023332;28;58537;-75
2023/12/25 10:59:38;;;;;;;;;;;;;;;;;;5020275;28;58700;-77
2023/12/25 11:02:03;;;;;;;;;;;;;;;;;;5024130;27;59361;-75
2023/12/25 11:04:28;;;;;;;;;;;;;;;;;;5020869;28;58948;-74
2023/12/25 11:06:53;;;;;;;;;;;;;;;;;;5023158;28;58272;-74
2023/12/25 11:09:19;;;;;;;;;;;;;;;;;;5019545;28;59149;-82
2023/12/25 11:11:45;;;;;;;;;;;;;;;;;;5021388;28;59167;-76
2023/12/25 11:14:10;;;;;;;;;;;;;;;;;;5019514;27;58450;-76
2023/12/25 11:16:35;;;;;;;;;;;;;;;;;;5019455;28;58589;-78
2023/12/25 11:19:00;;;;;;;;;;;;;;;;;;5018410;28;59451;-72
2023/12/25 11:21:25;;;;;;;;;;;;;;;;;;5021667;28;58834;-78
2023/12/25 11:23:51;;;;;;;;;;;;;;;;;;5020636;28;58978;-78
2023/12/25 11:26:18;;;;;;;;;;;;;;;;;;5019505;28;58230;-78
2023/12/25 11:28:43;;;;;;;;;;;;;;;;;;5021428;28;58671;-78
2023/12/25 11:31:08;;;;;;;;;;;;;;;;;;5021318;28;58951;-77
2023/12/25 11:33:33;;;;;;;;;;;;;;;;;;5018658;27;59015;-77
2023/12/25 11:36:00;;;;;;;;;;;;;;;;;;5023660;28;58740;-77
2023/12/25 11:38:26;;;;;;;;;;;;;;;;;;5022563;27;58885;-78
2023/12/25 11:40:52;;;;;;;;;;;;;;;;;;5022286;28;58634;-77
2023/12/25 11:43:17;;;;;;;;;;;;;;;;;;5020863;28;59289;-77
2023/12/25 11:45:42;;;;;;;;;;;;;;;;;;5020980;28;58213;-77
2023/12/25 11:48:10;;;;;;;;;;;;;;;;;;5019576;28;59395;-76
2023/12/25 11:50:35;;;;;;;;;;;;;;;;;;5021467;27;60138;-77
2023/12/25 11:53:00;;;;;;;;;;;;;;;;;;5024010;27;58234;-77
2023/12/25 11:55:26;;;;;;;;;;;;;;;;;;5020569;28;59250;-78
2023/12/25 11:57:51;;;;;;;;;;;;;;;;;;5021745;28;58852;-77
2023/12/25 12:00:17;;;;;;;;;;;;;;;;;;5023351;28;58171;-77
2023/12/25 12:02:43;;;;;;;;;;;;;;;;;;5021922;28;59662;-77
2023/12/25 12:05:08;;;;;;;;;;;;;;;;;;5021681;28;58514;-76
2023/12/25 12:07:33;;;;;;;;;;;;;;;;;;5021867;27;58063;-77
2023/12/25 12:09:58;;;;;;;;;;;;;;;;;;5015782;28;58929;-77
2023/12/25 12:12:23;;;;;;;;;;;;;;;;;;5019502;28;58776;-77
2023/12/25 12:14:48;;;;;;;;;;;;;;;;;;5022914;28;60531;-77
2023/12/25 12:17:14;;;;;;;;;;;;;;;;;;5017258;28;58902;-74
2023/12/25 12:19:39;;;;;;;;;;;;;;;;;;5017080;28;58221;-77
2023/12/25 12:22:04;;;;;;;;;;;;;;;;;;5019599;28;57919;-74
2023/12/25 12:24:29;;;;;;;;;;;;;;;;;;5021326;28;58271;-74
2023/12/25 12:26:54;;;;;;;;;;;;;;;;;;5021955;28;58405;-73
2023/12/25 12:29:19;;;;;;;;;;;;;;;;;;5019524;28;59049;-73
2023/12/25 12:31:44;;;;;;;;;;;;;;;;;;5018501;28;58041;-73
2023/12/25 12:34:09;;;;;;;;;;;;;;;;;;5019383;27;58561;-73
2023/12/25 12:36:34;;;;;;;;;;;;;;;;;;5018902;28;58215;-73
2023/12/25 12:39:00;;;;;;;;;;;;;;;;;;5021171;28;58203;-73
2023/12/25 12:41:25;;;;;;;;;;;;;;;;;;5020138;28;58453;-72
2023/12/25 12:43:50;;;;;;;;;;;;;;;;;;5019083;28;59685;-73
2023/12/25 12:46:15;;;;;;;;;;;;;;;;;;5021539;28;58528;-72
2023/12/25 12:48:40;;;;;;;;;;;;;;;;;;5020072;28;59967;-72
2023/12/25 12:51:05;;;;;;;;;;;;;;;;;;5021644;28;58165;-73
2023/12/25 12:53:30;;;;;;;;;;;;;;;;;;5021034;28;58601;-73
2023/12/25 12:55:55;;;;;;;;;;;;;;;;;;5020170;28;58863;-73
2023/12/25 12:58:21;;;;;;;;;;;;;;;;;;5022089;28;58823;-73
2023/12/25 13:00:46;;;;;;;;;;;;;;;;;;5015929;27;58675;-73
2023/12/25 13:03:11;;;;;;;;;;;;;;;;;;5022990;28;58955;-73
2023/12/25 13:05:36;;;;;;;;;;;;;;;;;;5023581;27;58520;-73
2023/12/25 13:08:01;;;;;;;;;;;;;;;;;;5023609;27;58880;-74
2023/12/25 13:10:26;;;;;;;;;;;;;;;;;;5022424;28;58756;-73
2023/12/25 13:12:51;;;;;;;;;;;;;;;;;;5022834;28;58734;-74
2023/12/25 13:15:16;;;;;;;;;;;;;;;;;;5024923;27;58097;-75
2023/12/25 13:17:41;;;;;;;;;;;;;;;;;;5025266;28;57847;-73
2023/12/25 13:20:09;;;;;;;;;;;;;;;;;;5023465;27;58836;-74
2023/12/25 13:22:35;;;;;;;;;;;;;;;;;;5019977;28;59030;-75
2023/12/25 13:25:00;;;;;;;;;;;;;;;;;;5021917;27;58531;-75
2023/12/25 13:27:25;;;;;;;;;;;;;;;;;;5023567;27;59153;-74
2023/12/25 13:29:50;;;;;;;;;;;;;;;;;;5025834;28;58096;-74
2023/12/25 13:32:16;;;;;;;;;;;;;;;;;;5022777;28;59619;-74
2023/12/25 13:34:41;;;;;;;;;;;;;;;;;;5021494;28;58852;-74
2023/12/25 13:37:06;;;;;;;;;;;;;;;;;;5024349;27;59164;-74
2023/12/25 13:39:32;;;;;;;;;;;;;;;;;;5024002;27;58952;-74
2023/12/25 13:41:57;;;;;;;;;;;;;;;;;;5023695;28;58018;-75
2023/12/25 13:44:22;;;;;;;;;;;;;;;;;;5024781;27;58221;-74
2023/12/25 13:46:47;;;;;;;;;;;;;;;;;;5023714;27;59056;-75
2023/12/25 13:49:12;;;;;;;;;;;;;;;;;;5025145;27;58456;-74
2023/12/25 13:51:37;;;;;;;;;;;;;;;;;;5022294;27;58541;-73
2023/12/25 13:54:02;;;;;;;;;;;;;;;;;;5021932;28;59136;-75
2023/12/25 13:56:28;;;;;;;;;;;;;;;;;;5022969;28;58048;-74
2023/12/25 13:58:53;;;;;;;;;;;;;;;;;;5020967;27;58281;-77
2023/12/25 14:01:19;;;;;;;;;;;;;;;;;;5021503;28;59027;-77
2023/12/25 14:03:44;;;;;;;;;;;;;;;;;;5024527;27;58113;-77
2023/12/25 14:06:09;;;;;;;;;;;;;;;;;;5023605;28;58781;-78
2023/12/25 14:08:34;;;;;;;;;;;;;;;;;;5022860;28;58713;-72
2023/12/25 14:10:59;;;;;;;;;;;;;;;;;;5022573;28;59510;-73
2023/12/25 14:13:24;;;;;;;;;;;;;;;;;;5022422;28;58896;-72
2023/12/25 14:15:50;;;;;;;;;;;;;;;;;;5023871;28;58153;-73
2023/12/25 14:18:15;;;;;;;;;;;;;;;;;;5022993;28;58745;-73
2023/12/25 14:20:40;;;;;;;;;;;;;;;;;;5023332;28;58826;-73
2023/12/25 14:23:05;;;;;;;;;;;;;;;;;;5021464;28;58845;-73
2023/12/25 14:25:30;;;;;;;;;;;;;;;;;;5019825;27;58824;-74
2023/12/25 14:27:55;;;;;;;;;;;;;;;;;;5022534;28;58289;-75
2023/12/25 14:30:20;;;;;;;;;;;;;;;;;;5023710;27;58336;-76
2023/12/25 14:32:45;;;;;;;;;;;;;;;;;;5020333;28;58056;-76
2023/12/25 14:35:10;;;;;;;;;;;;;;;;;;5020367;28;58139;-76
2023/12/25 14:37:36;;;;;;;;;;;;;;;;;;5021815;28;58187;-76
2023/12/25 14:40:01;;;;;;;;;;;;;;;;;;5019986;27;59539;-75
2023/12/25 14:42:26;;;;;;;;;;;;;;;;;;5020653;28;58867;-76
2023/12/25 14:44:51;;;;;;;;;;;;;;;;;;5020562;28;58182;-76
2023/12/25 14:47:16;;;;;;;;;;;;;;;;;;5020311;28;59628;-75
2023/12/25 14:49:41;;;;;;;;;;;;;;;;;;5020996;27;58807;-75
2023/12/25 14:52:06;;;;;;;;;;;;;;;;;;5018987;28;58668;-76
2023/12/25 14:54:31;;;;;;;;;;;;;;;;;;5021226;27;58138;-76
2023/12/25 14:56:56;;;;;;;;;;;;;;;;;;5020932;28;58570;-75
2023/12/25 14:59:22;;;;;;;;;;;;;;;;;;5018975;27;58871;-75
2023/12/25 15:01:48;;;;;;;;;;;;;;;;;;5020358;27;59381;-76
2023/12/25 15:04:13;;;;;;;;;;;;;;;;;;5018417;28;59941;-76
2023/12/25 15:06:38;;;;;;;;;;;;;;;;;;5014658;28;59237;-76
2023/12/25 15:09:03;;;;;;;;;;;;;;;;;;5021719;28;57658;-76
2023/12/25 15:11:28;;;;;;;;;;;;;;;;;;5021259;28;58844;-76
2023/12/25 15:13:53;;;;;;;;;;;;;;;;;;5019558;28;58006;-76
2023/12/25 15:16:19;;;;;;;;;;;;;;;;;;5021209;28;58585;-76
2023/12/25 15:18:44;;;;;;;;;;;;;;;;;;5018274;27;58789;-75
2023/12/25 15:21:09;;;;;;;;;;;;;;;;;;5024735;28;58447;-75
2023/12/25 15:23:34;;;;;;;;;;;;;;;;;;5019339;27;59002;-75
2023/12/25 15:25:59;;;;;;;;;;;;;;;;;;5020996;28;57889;-75
2023/12/25 15:28:24;;;;;;;;;;;;;;;;;;5022415;28;57983;-75
2023/12/25 15:30:49;;;;;;;;;;;;;;;;;;5019407;27;59572;-76
2023/12/25 15:33:15;;;;;;;;;;;;;;;;;;5022634;27;58925;-75
2023/12/25 15:35:40;;;;;;;;;;;;;;;;;;5023428;28;58460;-76
2023/12/25 15:38:05;;;;;;;;;;;;;;;;;;5020452;28;58929;-75
2023/12/25 15:40:30;;;;;;;;;;;;;;;;;;5019799;28;58463;-75
2023/12/25 15:42:55;;;;;;;;;;;;;;;;;;5022687;27;59287;-75
2023/12/25 15:45:21;;;;;;;;;;;;;;;;;;5022290;28;58799;-75
2023/12/25 15:47:46;;;;;;;;;;;;;;;;;;5023596;28;58194;-76
2023/12/25 15:50:11;;;;;;;;;;;;;;;;;;5019513;28;58858;-75
2023/12/25 15:52:36;;;;;;;;;;;;;;;;;;5016653;28;59077;-75
2023/12/25 15:55:01;;;;;;;;;;;;;;;;;;5020222;27;57952;-75
2023/12/25 15:57:26;;;;;;;;;;;;;;;;;;5015333;28;58817;-76
2023/12/25 15:59:51;;;;;;;;;;;;;;;;;;5021981;28;58110;-75
2023/12/25 16:02:17;;;;;;;;;;;;;;;;;;5019055;28;58906;-75
2023/12/25 16:04:42;;;;;;;;;;;;;;;;;;5017886;28;59629;-76
2023/12/25 16:07:11;;;;;;;;;;;;;;;;;;5021740;27;58484;-76
2023/12/25 16:09:36;;;;;;;;;;;;;;;;;;5019432;28;58211;-76
2023/12/25 16:12:02;;;;;;;;;;;;;;;;;;5020095;28;58263;-77
2023/12/25 16:14:27;;;;;;;;;;;;;;;;;;5019144;28;58136;-76
2023/12/25 16:16:53;;;;;;;;;;;;;;;;;;5018875;28;58603;-76
2023/12/25 16:19:18;;;;;;;;;;;;;;;;;;5019640;28;58253;-76
2023/12/25 16:21:43;;;;;;;;;;;;;;;;;;5018084;28;58630;-76
2023/12/25 16:24:08;;;;;;;;;;;;;;;;;;5020533;28;58974;-76
2023/12/25 16:26:33;;;;;;;;;;;;;;;;;;5020973;28;57955;-76
2023/12/25 16:28:58;;;;;;;;;;;;;;;;;;5020938;28;59751;-78
2023/12/25 16:31:24;;;;;;;;;;;;;;;;;;5018633;28;59724;-76